Time;durP1;ratioP1;P1;durP2;ratioP2;P2;SDS_P1;SDS_P2;PMS_P1;PMS_P2;Temp;Humidity;BMP_temperature;BMP_pressure;BME280_temperature;BME280_humidity;BME280_pressure;Samples;Min_cycle;Max_cycle;Signal;HPM_P1;HPM_P2
2023/06/23 00:01:00;;;;;;;;;;;18.00;99.90;;;;;;5020976;28;19975;-85
2023/06/23 00:03:26;;;;;;;;;;;18.00;99.90;;;;;;5021739;28;19920;-85
2023/06/23 00:05:51;;;;;;;;;;;18.20;99.90;;;;;;5021642;28;19921;-85
2023/06/23 00:08:17;;;;;;;;;;;18.30;99.90;;;;;;5022088;28;20443;-84
2023/06/23 00:10:43;;;;;;;;;;;18.40;99.90;;;;;;5005844;28;20750;-84
2023/06/23 00:13:10;;;;;;;;;;;18.40;99.90;;;;;;5022623;28;19974;-84
2023/06/23 00:15:35;;;;;;;;;;;18.40;99.90;;;;;;5021633;28;20405;-84
2023/06/23 00:18:01;;;;;;;;;;;18.40;99.90;;;;;;5013486;28;20443;-83
2023/06/23 00:20:26;;;;;;;;;;;18.40;99.90;;;;;;5018133;28;20023;-84
2023/06/23 00:22:52;;;;;;;;;;;18.40;99.90;;;;;;5020619;28;19920;-84
2023/06/23 00:25:18;;;;;;;;;;;18.40;99.90;;;;;;5022143;28;19974;-85
2023/06/23 00:27:46;;;;;;;;;;;18.40;99.90;;;;;;5021869;28;19920;-84
2023/06/23 00:30:13;;;;;;;;;;;18.30;99.90;;;;;;5021770;28;19956;-84
2023/06/23 00:32:41;;;;;;;;;;;18.30;99.90;;;;;;5023565;28;19944;-83
2023/06/23 00:35:08;;;;;;;;;;;18.30;99.90;;;;;;5019588;28;19963;-84
2023/06/23 00:37:37;;;;;;;;;;;18.30;99.90;;;;;;5021285;28;19916;-84
2023/06/23 00:40:04;;;;;;;;;;;18.30;99.90;;;;;;5021811;28;19916;-84
2023/06/23 00:42:30;;;;;;;;;;;18.30;99.90;;;;;;5022153;28;19919;-84
2023/06/23 00:44:57;;;;;;;;;;;18.20;99.90;;;;;;5016092;28;20319;-84
2023/06/23 00:47:24;;;;;;;;;;;18.20;99.90;;;;;;5017805;28;19913;-84
2023/06/23 00:49:50;;;;;;;;;;;18.00;99.90;;;;;;5042019;28;19908;-84
2023/06/23 00:52:16;;;;;;;;;;;18.00;99.90;;;;;;5041383;28;19923;-84
2023/06/23 00:54:41;;;;;;;;;;;18.00;99.90;;;;;;5041691;28;19908;-85
2023/06/23 00:57:07;;;;;;;;;;;17.90;99.90;;;;;;5038844;28;19979;-84
2023/06/23 00:59:33;;;;;;;;;;;18.00;99.90;;;;;;5030808;28;20426;-84
2023/06/23 01:02:02;;;;;;;;;;;17.90;99.90;;;;;;5041561;28;19916;-83
2023/06/23 01:04:29;;;;;;;;;;;17.90;99.90;;;;;;5025961;28;20604;-82
2023/06/23 01:07:01;;;;;;;;;;;17.80;99.90;;;;;;5045781;28;19909;-83
2023/06/23 01:09:47;;;;;;;;;;;17.90;99.90;;;;;;5045404;28;19912;-83
2023/06/23 01:12:18;;;;;;;;;;;17.80;99.90;;;;;;5040969;28;20372;-82
2023/06/23 01:15:04;;;;;;;;;;;17.80;99.90;;;;;;5045390;28;19915;-82
2023/06/23 01:17:53;;;;;;;;;;;17.70;99.90;;;;;;5039148;28;19916;-82
2023/06/23 01:20:24;;;;;;;;;;;17.70;99.90;;;;;;5019425;28;19990;-81
2023/06/23 01:23:09;;;;;;;;;;;17.70;99.90;;;;;;5044935;28;20365;-81
2023/06/23 01:25:46;;;;;;;;;;;17.70;99.90;;;;;;5042857;28;19994;-82
2023/06/23 01:28:11;;;;;;;;;;;17.60;99.90;;;;;;5044285;28;19962;-82
2023/06/23 01:30:38;;;;;;;;;;;17.70;99.90;;;;;;5044705;28;19913;-82
2023/06/23 01:33:07;;;;;;;;;;;17.80;99.90;;;;;;5040437;28;20401;-85
2023/06/23 01:35:35;;;;;;;;;;;17.90;99.90;;;;;;5040920;28;20528;-83
2023/06/23 01:38:07;;;;;;;;;;;17.90;99.90;;;;;;5044016;28;19908;-82
2023/06/23 01:40:33;;;;;;;;;;;18.00;99.90;;;;;;5043951;28;19912;-83
2023/06/23 01:43:00;;;;;;;;;;;17.90;99.90;;;;;;5043783;28;19920;-83
2023/06/23 01:45:27;;;;;;;;;;;18.00;99.90;;;;;;5045037;28;19970;-83
2023/06/23 01:47:54;;;;;;;;;;;18.00;99.90;;;;;;5035162;28;20016;-83
2023/06/23 01:50:21;;;;;;;;;;;18.00;99.90;;;;;;5023400;28;19913;-83
2023/06/23 01:52:49;;;;;;;;;;;18.00;99.90;;;;;;5024395;28;19951;-84
2023/06/23 01:55:15;;;;;;;;;;;18.00;99.90;;;;;;5017114;28;19913;-82
2023/06/23 01:57:42;;;;;;;;;;;18.00;99.90;;;;;;5008895;28;19944;-84
2023/06/23 02:00:13;;;;;;;;;;;18.00;99.90;;;;;;5022625;28;20331;-82
2023/06/23 02:02:42;;;;;;;;;;;18.00;99.90;;;;;;5012760;28;19916;-82
2023/06/23 02:05:08;;;;;;;;;;;18.10;99.90;;;;;;5021647;28;19924;-82
2023/06/23 02:07:34;;;;;;;;;;;18.10;99.90;;;;;;5022047;28;20048;-83
2023/06/23 02:10:01;;;;;;;;;;;18.20;99.90;;;;;;5011626;28;19913;-83
2023/06/23 02:12:26;;;;;;;;;;;18.20;99.90;;;;;;5021691;28;19955;-83
2023/06/23 02:14:52;;;;;;;;;;;18.20;99.90;;;;;;5021547;28;20299;-83
2023/06/23 02:17:18;;;;;;;;;;;18.30;99.90;;;;;;5016699;28;19978;-83
2023/06/23 02:19:45;;;;;;;;;;;18.20;99.90;;;;;;5019321;28;19913;-83
2023/06/23 02:22:19;;;;;;;;;;;18.10;99.90;;;;;;5016472;28;19909;-83
2023/06/23 02:24:46;;;;;;;;;;;18.10;99.90;;;;;;5023663;28;19912;-84
2023/06/23 02:27:12;;;;;;;;;;;18.10;99.90;;;;;;5016406;28;20413;-84
2023/06/23 02:29:41;;;;;;;;;;;18.10;99.90;;;;;;5021251;28;19909;-84
2023/06/23 02:32:07;;;;;;;;;;;18.20;99.90;;;;;;5022800;28;20008;-84
2023/06/23 02:34:34;;;;;;;;;;;18.20;99.90;;;;;;5019148;28;19909;-84
2023/06/23 02:37:05;;;;;;;;;;;18.20;99.90;;;;;;5014641;28;19915;-83
2023/06/23 02:39:33;;;;;;;;;;;18.20;99.90;;;;;;5011682;28;19939;-84
2023/06/23 02:41:59;;;;;;;;;;;18.20;99.90;;;;;;5014283;28;20743;-84
2023/06/23 02:44:29;;;;;;;;;;;18.00;99.90;;;;;;5019823;28;19966;-85
2023/06/23 02:46:56;;;;;;;;;;;18.00;99.90;;;;;;5012342;28;19921;-82
2023/06/23 02:49:24;;;;;;;;;;;17.90;99.90;;;;;;5020168;28;19925;-83
2023/06/23 02:51:52;;;;;;;;;;;17.80;99.90;;;;;;5023015;28;19981;-83
2023/06/23 02:54:18;;;;;;;;;;;17.80;99.90;;;;;;5022745;28;19913;-84
2023/06/23 02:56:46;;;;;;;;;;;17.80;99.90;;;;;;5019046;28;19920;-82
2023/06/23 02:59:15;;;;;;;;;;;17.90;99.90;;;;;;5002664;28;20346;-82
2023/06/23 03:01:44;;;;;;;;;;;17.90;99.90;;;;;;5023339;28;19917;-82
2023/06/23 03:04:12;;;;;;;;;;;17.90;99.90;;;;;;5022810;28;19913;-83
2023/06/23 03:06:38;;;;;;;;;;;17.80;99.90;;;;;;5005334;28;20388;-83
2023/06/23 03:09:05;;;;;;;;;;;17.90;99.90;;;;;;5021250;28;19922;-83
2023/06/23 03:11:32;;;;;;;;;;;17.90;99.90;;;;;;5023677;28;19963;-83
2023/06/23 03:13:57;;;;;;;;;;;18.00;99.90;;;;;;5022043;28;19967;-83
2023/06/23 03:16:30;;;;;;;;;;;18.00;99.90;;;;;;5022474;28;19909;-83
2023/06/23 03:19:10;;;;;;;;;;;17.90;99.90;;;;;;5004823;28;20004;-83
2023/06/23 03:21:36;;;;;;;;;;;17.90;99.90;;;;;;5022707;28;19991;-84
2023/06/23 03:24:03;;;;;;;;;;;17.80;99.90;;;;;;5020479;28;20510;-84
2023/06/23 03:26:30;;;;;;;;;;;17.80;99.90;;;;;;5014468;28;20524;-85
2023/06/23 03:28:57;;;;;;;;;;;17.70;99.90;;;;;;5019286;28;19916;-85
2023/06/23 03:31:24;;;;;;;;;;;17.70;99.90;;;;;;4994599;28;20363;-85
2023/06/23 03:33:50;;;;;;;;;;;17.70;99.90;;;;;;5022290;28;19913;-84
2023/06/23 03:36:19;;;;;;;;;;;17.70;99.90;;;;;;5022534;28;19920;-83
2023/06/23 03:38:46;;;;;;;;;;;17.60;99.90;;;;;;5000006;28;19909;-84
2023/06/23 03:41:13;;;;;;;;;;;17.50;99.90;;;;;;5021059;28;19908;-83
2023/06/23 03:43:46;;;;;;;;;;;17.60;99.90;;;;;;5022047;28;20470;-84
2023/06/23 03:46:17;;;;;;;;;;;17.40;99.90;;;;;;5021591;28;19920;-84
2023/06/23 03:48:45;;;;;;;;;;;17.50;99.90;;;;;;5030164;28;19960;-85
2023/06/23 03:51:12;;;;;;;;;;;17.40;99.90;;;;;;5038887;28;19912;-85
2023/06/23 03:53:38;;;;;;;;;;;17.50;99.90;;;;;;5032215;28;19915;-85
2023/06/23 03:56:04;;;;;;;;;;;17.50;99.90;;;;;;5039936;28;20696;-83
2023/06/23 03:58:30;;;;;;;;;;;17.50;99.90;;;;;;5040413;28;20069;-83
2023/06/23 04:00:57;;;;;;;;;;;17.40;99.90;;;;;;5041367;28;20650;-84
2023/06/23 04:03:23;;;;;;;;;;;17.50;99.90;;;;;;5040038;28;20130;-85
2023/06/23 04:05:49;;;;;;;;;;;17.50;99.90;;;;;;5018248;28;20653;-83
2023/06/23 04:08:16;;;;;;;;;;;17.50;99.90;;;;;;5041203;28;20000;-83
2023/06/23 04:10:43;;;;;;;;;;;17.50;99.90;;;;;;5041450;28;19919;-83
2023/06/23 04:13:10;;;;;;;;;;;17.50;99.90;;;;;;5037749;28;19927;-83
2023/06/23 04:15:37;;;;;;;;;;;17.50;99.90;;;;;;5035985;28;19974;-82
2023/06/23 04:18:04;;;;;;;;;;;17.40;99.90;;;;;;5041067;28;19921;-82
2023/06/23 04:20:30;;;;;;;;;;;17.40;99.90;;;;;;5040417;28;19931;-82
2023/06/23 04:22:56;;;;;;;;;;;17.40;99.90;;;;;;5041900;28;19912;-82
2023/06/23 04:25:22;;;;;;;;;;;17.50;99.90;;;;;;5040774;28;19908;-82
2023/06/23 04:27:50;;;;;;;;;;;17.50;99.90;;;;;;5036561;28;19934;-82
2023/06/23 04:30:17;;;;;;;;;;;17.40;99.90;;;;;;5033815;28;19936;-83
2023/06/23 04:32:43;;;;;;;;;;;17.40;99.90;;;;;;5032905;28;19917;-82
2023/06/23 04:35:08;;;;;;;;;;;17.40;99.90;;;;;;5023715;28;19916;-82
2023/06/23 04:37:34;;;;;;;;;;;17.30;99.90;;;;;;5040144;28;20348;-83
2023/06/23 04:40:04;;;;;;;;;;;17.20;99.90;;;;;;5034022;28;19920;-83
2023/06/23 04:42:38;;;;;;;;;;;17.20;99.90;;;;;;5045542;28;19912;-80
2023/06/23 04:45:04;;;;;;;;;;;17.30;99.90;;;;;;5044350;28;19912;-87
2023/06/23 04:47:33;;;;;;;;;;;17.40;99.90;;;;;;5045935;28;19953;-86
2023/06/23 04:50:00;;;;;;;;;;;17.40;99.90;;;;;;5025267;28;20027;-88
2023/06/23 04:52:27;;;;;;;;;;;17.40;99.90;;;;;;5007613;28;20030;-87
2023/06/23 04:54:54;;;;;;;;;;;17.40;99.90;;;;;;5025063;28;20036;-87
2023/06/23 04:57:21;;;;;;;;;;;17.40;99.90;;;;;;5025031;28;19920;-86
2023/06/23 04:59:49;;;;;;;;;;;17.40;99.90;;;;;;5007998;28;19924;-87
2023/06/23 05:02:16;;;;;;;;;;;17.50;99.90;;;;;;5006241;28;19913;-88
2023/06/23 05:04:42;;;;;;;;;;;17.50;99.90;;;;;;5021760;28;20303;-89
2023/06/23 05:07:08;;;;;;;;;;;17.50;99.90;;;;;;5024950;28;19913;-87
2023/06/23 05:09:35;;;;;;;;;;;17.60;99.90;;;;;;5024952;28;20000;-88
2023/06/23 05:12:01;;;;;;;;;;;17.60;99.90;;;;;;5023713;28;20307;-91
2023/06/23 05:14:28;;;;;;;;;;;17.60;99.90;;;;;;5025342;28;19917;-89
2023/06/23 05:16:55;;;;;;;;;;;17.60;99.90;;;;;;5025241;28;19936;-88
2023/06/23 05:19:21;;;;;;;;;;;17.50;99.90;;;;;;5024084;28;19913;-88
2023/06/23 05:21:47;;;;;;;;;;;17.50;99.90;;;;;;5023556;28;19917;-89
2023/06/23 05:24:15;;;;;;;;;;;17.50;99.90;;;;;;5025509;28;19908;-91
2023/06/23 05:26:41;;;;;;;;;;;17.60;99.90;;;;;;5025029;28;19909;-90
2023/06/23 05:29:07;;;;;;;;;;;17.60;99.90;;;;;;5027593;28;19917;-91
2023/06/23 05:31:35;;;;;;;;;;;17.60;99.90;;;;;;5026784;28;19917;-91
2023/06/23 05:34:01;;;;;;;;;;;17.60;99.90;;;;;;5026906;28;20043;-91
2023/06/23 05:36:28;;;;;;;;;;;17.90;99.90;;;;;;5025451;28;20658;-90
2023/06/23 05:38:54;;;;;;;;;;;17.80;99.90;;;;;;5025082;28;19913;-92
2023/06/23 05:41:20;;;;;;;;;;;18.00;99.90;;;;;;5010269;28;19932;-90
2023/06/23 05:43:46;;;;;;;;;;;17.90;99.90;;;;;;5006098;28;19908;-86
2023/06/23 05:46:13;;;;;;;;;;;18.00;99.90;;;;;;5020693;28;19979;-86
2023/06/23 05:48:41;;;;;;;;;;;17.90;99.90;;;;;;5035782;28;19975;-87
2023/06/23 05:51:08;;;;;;;;;;;17.90;99.90;;;;;;5035126;28;19978;-86
2023/06/23 05:53:35;;;;;;;;;;;17.90;99.90;;;;;;5029928;28;19978;-85
2023/06/23 05:56:02;;;;;;;;;;;17.90;99.90;;;;;;5031314;28;20318;-85
2023/06/23 05:58:32;;;;;;;;;;;18.10;99.90;;;;;;5030020;28;19905;-84
2023/06/23 06:00:59;;;;;;;;;;;18.20;99.90;;;;;;5030132;28;20398;-87
2023/06/23 06:03:27;;;;;;;;;;;18.10;99.90;;;;;;5024607;28;20472;-85
2023/06/23 06:05:54;;;;;;;;;;;18.20;99.90;;;;;;5006384;28;19948;-85
2023/06/23 06:08:22;;;;;;;;;;;18.20;99.90;;;;;;5024664;28;19909;-85
2023/06/23 06:10:48;;;;;;;;;;;18.40;99.90;;;;;;5024067;28;19916;-86
2023/06/23 06:13:15;;;;;;;;;;;18.40;99.90;;;;;;5024361;28;19956;-86
2023/06/23 06:15:41;;;;;;;;;;;18.40;99.90;;;;;;5005875;28;19975;-87
2023/06/23 06:18:09;;;;;;;;;;;18.00;99.90;;;;;;5024278;28;19971;-88
2023/06/23 06:20:35;;;;;;;;;;;18.20;99.90;;;;;;5023968;28;19913;-86
2023/06/23 06:23:01;;;;;;;;;;;18.20;99.90;;;;;;5024374;28;19975;-82
2023/06/23 06:25:28;;;;;;;;;;;18.10;99.90;;;;;;5030204;28;19917;-82
2023/06/23 06:27:54;;;;;;;;;;;18.20;99.90;;;;;;5023698;28;19909;-82
2023/06/23 06:30:21;;;;;;;;;;;18.30;99.90;;;;;;5023781;28;20106;-83
2023/06/23 06:32:47;;;;;;;;;;;18.20;99.90;;;;;;5023613;28;19920;-82
2023/06/23 06:35:15;;;;;;;;;;;18.30;99.90;;;;;;5023902;28;19948;-82
2023/06/23 06:37:47;;;;;;;;;;;18.20;99.90;;;;;;5023751;28;19986;-82
2023/06/23 06:40:14;;;;;;;;;;;18.40;99.90;;;;;;5014755;28;19959;-82
2023/06/23 06:42:39;;;;;;;;;;;18.50;99.90;;;;;;5018581;28;19992;-82
2023/06/23 06:45:05;;;;;;;;;;;18.60;99.90;;;;;;5013814;28;19923;-82
2023/06/23 06:47:33;;;;;;;;;;;18.90;99.90;;;;;;5021850;28;19991;-82
2023/06/23 06:49:59;;;;;;;;;;;18.90;99.90;;;;;;5032430;28;19924;-82
2023/06/23 06:52:27;;;;;;;;;;;19.30;99.90;;;;;;5040397;28;20007;-81
2023/06/23 06:54:52;;;;;;;;;;;19.00;99.90;;;;;;5040531;28;19908;-81
2023/06/23 06:57:18;;;;;;;;;;;19.00;99.90;;;;;;5043671;28;19986;-81
2023/06/23 06:59:44;;;;;;;;;;;19.10;99.90;;;;;;5039261;28;19908;-81
2023/06/23 07:02:10;;;;;;;;;;;19.40;99.90;;;;;;5038262;28;19966;-81
2023/06/23 07:04:36;;;;;;;;;;;19.50;99.90;;;;;;5043732;28;19931;-82
2023/06/23 07:07:02;;;;;;;;;;;19.60;99.90;;;;;;5037988;28;20419;-83
2023/06/23 07:09:28;;;;;;;;;;;19.70;99.90;;;;;;5042682;28;19983;-82
2023/06/23 07:11:56;;;;;;;;;;;19.40;99.90;;;;;;5037547;28;19916;-82
2023/06/23 07:14:22;;;;;;;;;;;19.30;99.90;;;;;;5042835;28;19913;-83
2023/06/23 07:16:48;;;;;;;;;;;19.40;99.90;;;;;;5036908;28;19963;-81
2023/06/23 07:19:13;;;;;;;;;;;19.50;99.90;;;;;;5025276;28;19999;-81
2023/06/23 07:21:39;;;;;;;;;;;19.40;99.90;;;;;;5035945;28;20101;-82
2023/06/23 07:24:05;;;;;;;;;;;19.60;99.90;;;;;;5034266;28;19908;-82
2023/06/23 07:26:31;;;;;;;;;;;19.70;99.90;;;;;;5034888;28;19962;-82
2023/06/23 07:28:56;;;;;;;;;;;20.00;99.90;;;;;;5034742;28;20015;-82
2023/06/23 07:31:22;;;;;;;;;;;20.20;99.90;;;;;;5035963;28;19995;-82
2023/06/23 07:33:48;;;;;;;;;;;20.10;99.90;;;;;;5038960;28;20030;-82
2023/06/23 07:36:13;;;;;;;;;;;20.30;99.90;;;;;;5039668;28;20407;-82
2023/06/23 07:38:39;;;;;;;;;;;20.70;99.90;;;;;;5041155;28;19909;-82
2023/06/23 07:41:05;;;;;;;;;;;20.80;99.90;;;;;;5041253;28;19913;-82
2023/06/23 07:43:31;;;;;;;;;;;21.60;99.40;;;;;;5042358;28;19959;-83
2023/06/23 07:45:57;;;;;;;;;;;21.50;98.80;;;;;;5040988;28;20370;-82
2023/06/23 07:48:22;;;;;;;;;;;22.10;98.10;;;;;;5048419;28;20426;-83
2023/06/23 07:50:48;;;;;;;;;;;25.60;91.30;;;;;;5042022;28;20023;-82
2023/06/23 07:53:13;;;;;;;;;;;27.90;86.50;;;;;;5041732;28;19923;-82
2023/06/23 07:55:39;;;;;;;;;;;29.80;71.30;;;;;;5028704;28;19919;-82
2023/06/23 07:58:04;;;;;;;;;;;30.60;67.10;;;;;;5042181;28;20375;-83
2023/06/23 08:00:30;;;;;;;;;;;28.80;71.00;;;;;;5041721;28;20359;-82
2023/06/23 08:02:56;;;;;;;;;;;27.50;73.50;;;;;;5048636;28;19908;-82
2023/06/23 08:05:23;;;;;;;;;;;26.90;76.80;;;;;;5051976;28;20035;-82
2023/06/23 08:07:49;;;;;;;;;;;25.90;79.20;;;;;;5056542;28;19912;-83
2023/06/23 08:10:14;;;;;;;;;;;29.70;70.70;;;;;;5042219;28;19931;-83
2023/06/23 08:12:40;;;;;;;;;;;27.90;73.00;;;;;;5026439;28;20697;-82
2023/06/23 08:15:06;;;;;;;;;;;28.00;76.50;;;;;;5043246;28;20003;-82
2023/06/23 08:17:32;;;;;;;;;;;31.50;63.30;;;;;;5032461;28;19908;-83
2023/06/23 08:19:58;;;;;;;;;;;32.10;60.30;;;;;;5055424;28;20410;-82
2023/06/23 08:22:23;;;;;;;;;;;34.00;59.70;;;;;;5051327;28;19913;-82
2023/06/23 08:24:49;;;;;;;;;;;34.20;57.80;;;;;;5027518;28;19909;-83
2023/06/23 08:27:14;;;;;;;;;;;33.70;59.00;;;;;;5055522;28;19908;-82
2023/06/23 08:29:40;;;;;;;;;;;34.00;57.00;;;;;;5052758;28;19909;-83
2023/06/23 08:32:06;;;;;;;;;;;35.00;57.20;;;;;;5026930;28;19920;-82
2023/06/23 08:34:32;;;;;;;;;;;35.20;55.00;;;;;;5045866;28;19908;-84
2023/06/23 08:36:57;;;;;;;;;;;35.60;54.80;;;;;;5045756;28;19950;-84
2023/06/23 08:39:23;;;;;;;;;;;36.00;55.00;;;;;;5058065;28;19932;-83
2023/06/23 08:41:48;;;;;;;;;;;35.40;55.80;;;;;;5036693;28;19909;-82
2023/06/23 08:44:15;;;;;;;;;;;36.10;55.40;;;;;;5042197;28;19920;-83
2023/06/23 08:46:41;;;;;;;;;;;35.20;55.40;;;;;;5045107;28;19935;-83
2023/06/23 08:49:11;;;;;;;;;;;35.40;55.10;;;;;;5030329;28;20811;-82
2023/06/23 08:51:37;;;;;;;;;;;33.60;60.70;;;;;;5033464;28;20920;-83
2023/06/23 08:54:03;;;;;;;;;;;31.80;62.40;;;;;;5023063;28;19912;-83
2023/06/23 08:56:29;;;;;;;;;;;32.20;63.40;;;;;;5025733;28;20449;-83
2023/06/23 08:58:54;;;;;;;;;;;31.30;62.80;;;;;;5024903;28;20316;-83
2023/06/23 09:01:20;;;;;;;;;;;29.70;66.00;;;;;;5010644;28;20374;-83
2023/06/23 09:03:46;;;;;;;;;;;29.90;67.30;;;;;;5021079;28;19999;-83
2023/06/23 09:06:11;;;;;;;;;;;28.70;69.90;;;;;;5015986;28;20287;-83
2023/06/23 09:08:37;;;;;;;;;;;33.40;62.40;;;;;;5021343;28;19967;-83
2023/06/23 09:11:02;;;;;;;;;;;34.50;60.10;;;;;;5025120;28;20364;-82
2023/06/23 09:13:39;;;;;;;;;;;36.30;57.70;;;;;;5016177;28;19917;-83
2023/06/23 09:16:04;;;;;;;;;;;35.60;56.00;;;;;;4999403;28;19913;-83
2023/06/23 09:18:32;;;;;;;;;;;36.10;56.90;;;;;;5025383;28;19909;-83
2023/06/23 09:20:59;;;;;;;;;;;37.00;55.50;;;;;;5018578;28;19910;-83
2023/06/23 09:23:25;;;;;;;;;;;35.60;53.30;;;;;;5024228;28;19975;-83
2023/06/23 09:25:53;;;;;;;;;;;34.50;55.80;;;;;;5022387;28;20368;-83
2023/06/23 09:28:23;;;;;;;;;;;36.10;57.50;;;;;;5001012;28;19928;-83
2023/06/23 09:30:49;;;;;;;;;;;36.90;55.00;;;;;;5023781;28;20440;-83
2023/06/23 09:33:16;;;;;;;;;;;36.80;53.10;;;;;;5018158;28;20023;-82
2023/06/23 09:36:03;;;;;;;;;;;36.10;53.20;;;;;;5015422;28;20029;-83
2023/06/23 09:38:34;;;;;;;;;;;37.30;53.60;;;;;;5032019;28;19954;-83
2023/06/23 09:41:10;;;;;;;;;;;37.30;51.90;;;;;;5024494;28;19916;-83
2023/06/23 09:43:40;;;;;;;;;;;36.90;54.20;;;;;;5013766;28;19909;-83
2023/06/23 09:46:06;;;;;;;;;;;35.70;52.70;;;;;;5005437;28;19963;-84
2023/06/23 09:48:32;;;;;;;;;;;36.80;54.80;;;;;;5006740;28;20570;-83
2023/06/23 09:51:01;;;;;;;;;;;37.00;52.90;;;;;;5006445;28;19958;-83
2023/06/23 09:53:30;;;;;;;;;;;37.70;52.40;;;;;;5025554;28;19975;-82
2023/06/23 09:55:56;;;;;;;;;;;36.80;52.40;;;;;;5022615;28;20380;-82
2023/06/23 09:58:21;;;;;;;;;;;37.10;50.50;;;;;;5024824;28;19909;-83
2023/06/23 10:00:47;;;;;;;;;;;38.30;51.60;;;;;;5023010;28;19956;-82
2023/06/23 10:03:12;;;;;;;;;;;38.70;51.10;;;;;;5024085;28;19931;-82
2023/06/23 10:05:38;;;;;;;;;;;38.20;50.50;;;;;;5024303;28;19963;-80
2023/06/23 10:08:07;;;;;;;;;;;38.10;49.40;;;;;;5025276;28;19909;-80
2023/06/23 10:10:33;;;;;;;;;;;37.30;49.10;;;;;;5006981;28;19952;-80
2023/06/23 10:12:59;;;;;;;;;;;37.30;52.50;;;;;;5024447;28;20016;-80
2023/06/23 10:15:25;;;;;;;;;;;36.90;50.10;;;;;;5024264;28;20015;-80
2023/06/23 10:17:51;;;;;;;;;;;36.10;52.20;;;;;;5023949;28;19916;-81
2023/06/23 10:20:17;;;;;;;;;;;37.20;53.00;;;;;;5023779;28;20698;-81
2023/06/23 10:22:43;;;;;;;;;;;35.80;54.50;;;;;;5023305;28;19916;-82
2023/06/23 10:25:12;;;;;;;;;;;36.70;54.00;;;;;;5022177;28;20264;-80
2023/06/23 10:27:40;;;;;;;;;;;37.00;52.40;;;;;;5023786;28;20015;-80
2023/06/23 10:30:07;;;;;;;;;;;36.60;52.40;;;;;;5023795;28;19909;-80
2023/06/23 10:32:34;;;;;;;;;;;37.20;50.80;;;;;;5013925;28;19987;-80
2023/06/23 10:35:03;;;;;;;;;;;37.00;50.50;;;;;;5023639;28;19995;-81
2023/06/23 10:37:30;;;;;;;;;;;36.10;53.80;;;;;;5005007;28;19909;-80
2023/06/23 10:40:03;;;;;;;;;;;36.00;53.30;;;;;;5023641;28;19979;-81
2023/06/23 10:42:29;;;;;;;;;;;37.20;51.00;;;;;;5023690;28;19940;-79
2023/06/23 10:44:55;;;;;;;;;;;35.50;55.10;;;;;;5004379;28;19916;-80
2023/06/23 10:47:21;;;;;;;;;;;35.00;55.20;;;;;;5023470;28;19916;-80
2023/06/23 10:49:48;;;;;;;;;;;34.00;56.60;;;;;;5023150;28;19925;-80
2023/06/23 10:52:14;;;;;;;;;;;31.70;59.10;;;;;;5023181;28;19917;-80
2023/06/23 10:54:39;;;;;;;;;;;30.70;62.60;;;;;;5023723;28;20571;-80
2023/06/23 10:57:09;;;;;;;;;;;31.50;63.30;;;;;;5005063;28;19924;-80
2023/06/23 10:59:35;;;;;;;;;;;30.10;63.70;;;;;;5023052;28;19943;-81
2023/06/23 11:02:01;;;;;;;;;;;31.00;62.80;;;;;;5023355;28;20431;-80
2023/06/23 11:04:27;;;;;;;;;;;31.00;63.50;;;;;;5022668;28;20012;-80
2023/06/23 11:07:03;;;;;;;;;;;30.90;66.00;;;;;;5023361;28;19909;-80
2023/06/23 11:09:52;;;;;;;;;;;30.80;66.60;;;;;;5015292;28;19909;-79
2023/06/23 11:12:31;;;;;;;;;;;30.50;66.90;;;;;;5020140;28;19921;-80
2023/06/23 11:15:03;;;;;;;;;;;30.30;66.40;;;;;;5023101;28;20705;-80
2023/06/23 11:17:29;;;;;;;;;;;30.00;65.70;;;;;;5022169;28;20645;-80
2023/06/23 11:19:55;;;;;;;;;;;29.20;67.00;;;;;;5022745;28;19909;-81
2023/06/23 11:22:23;;;;;;;;;;;29.40;65.30;;;;;;5022747;28;19913;-81
2023/06/23 11:24:53;;;;;;;;;;;29.70;63.00;;;;;;5004621;28;19916;-80
2023/06/23 11:27:18;;;;;;;;;;;29.90;63.20;;;;;;5022892;28;20079;-80
2023/06/23 11:30:04;;;;;;;;;;;29.60;64.90;;;;;;5016206;28;20012;-81
2023/06/23 11:32:29;;;;;;;;;;;29.50;66.00;;;;;;5017386;28;19952;-81
2023/06/23 11:34:57;;;;;;;;;;;29.90;67.70;;;;;;5019912;28;20435;-80
2023/06/23 11:37:26;;;;;;;;;;;30.00;63.30;;;;;;5015880;28;19944;-81
2023/06/23 11:39:53;;;;;;;;;;;30.20;66.00;;;;;;5022108;28;19913;-80
2023/06/23 11:42:19;;;;;;;;;;;29.70;64.30;;;;;;5013958;28;19909;-80
2023/06/23 11:44:46;;;;;;;;;;;29.70;63.50;;;;;;5022186;28;19970;-80
2023/06/23 11:47:11;;;;;;;;;;;29.40;65.80;;;;;;5021427;28;19917;-80
2023/06/23 11:49:37;;;;;;;;;;;29.70;67.00;;;;;;5051317;28;19931;-81
2023/06/23 11:52:03;;;;;;;;;;;29.60;64.30;;;;;;5058275;28;19916;-81
2023/06/23 11:54:32;;;;;;;;;;;29.30;67.50;;;;;;5056473;28;19912;-79
2023/06/23 11:57:04;;;;;;;;;;;29.70;69.90;;;;;;5056511;28;19912;-80
2023/06/23 11:59:36;;;;;;;;;;;29.90;70.20;;;;;;5052266;28;21071;-80
2023/06/23 12:02:01;;;;;;;;;;;29.70;68.90;;;;;;5023815;28;19915;-80
2023/06/23 12:04:27;;;;;;;;;;;29.60;68.60;;;;;;5055935;28;20721;-81
2023/06/23 12:06:53;;;;;;;;;;;29.50;66.20;;;;;;5052248;28;19913;-81
2023/06/23 12:09:21;;;;;;;;;;;29.00;63.50;;;;;;5054902;28;19986;-80
2023/06/23 12:11:47;;;;;;;;;;;29.00;68.70;;;;;;5051056;28;19928;-80
2023/06/23 12:14:13;;;;;;;;;;;28.70;63.00;;;;;;5053102;28;19909;-80
2023/06/23 12:16:38;;;;;;;;;;;28.70;62.80;;;;;;5050656;28;19915;-80
2023/06/23 12:19:04;;;;;;;;;;;28.80;66.50;;;;;;5041395;28;19908;-80
2023/06/23 12:21:29;;;;;;;;;;;28.90;63.70;;;;;;5024182;28;19944;-80
2023/06/23 12:23:57;;;;;;;;;;;29.10;66.10;;;;;;5041705;28;20363;-80
2023/06/23 12:26:23;;;;;;;;;;;29.10;68.00;;;;;;5023869;28;19912;-80
2023/06/23 12:28:49;;;;;;;;;;;28.90;69.80;;;;;;5041806;28;20524;-80
2023/06/23 12:31:24;;;;;;;;;;;28.90;68.80;;;;;;5041836;28;19917;-80
2023/06/23 12:33:50;;;;;;;;;;;29.00;69.40;;;;;;5041924;28;19917;-80
2023/06/23 12:36:15;;;;;;;;;;;28.90;69.10;;;;;;5027492;28;19909;-80
2023/06/23 12:38:41;;;;;;;;;;;28.70;68.40;;;;;;5060688;28;19908;-80
2023/06/23 12:41:13;;;;;;;;;;;29.40;68.10;;;;;;5058831;28;19938;-80
2023/06/23 12:43:39;;;;;;;;;;;29.90;67.00;;;;;;5060240;28;19912;-80
2023/06/23 12:46:05;;;;;;;;;;;29.70;65.80;;;;;;5053870;28;19921;-80
2023/06/23 12:48:30;;;;;;;;;;;29.40;64.00;;;;;;5034114;28;19925;-80
2023/06/23 12:50:57;;;;;;;;;;;29.20;62.80;;;;;;5021192;28;19940;-80
2023/06/23 12:53:23;;;;;;;;;;;29.20;61.30;;;;;;5021842;28;19925;-81
2023/06/23 12:55:49;;;;;;;;;;;29.50;64.90;;;;;;5021431;28;19983;-80
2023/06/23 12:58:15;;;;;;;;;;;29.40;63.00;;;;;;5021842;28;20040;-80
2023/06/23 13:00:41;;;;;;;;;;;29.30;65.10;;;;;;5023068;28;20320;-81
2023/06/23 13:03:13;;;;;;;;;;;29.60;64.20;;;;;;5025239;28;19909;-80
2023/06/23 13:05:41;;;;;;;;;;;29.40;64.40;;;;;;5019855;28;19909;-80
2023/06/23 13:08:07;;;;;;;;;;;29.40;63.60;;;;;;5017780;28;20724;-80
2023/06/23 13:10:32;;;;;;;;;;;29.40;62.80;;;;;;5025173;28;19909;-80
2023/06/23 13:12:58;;;;;;;;;;;29.50;62.20;;;;;;5016455;28;20392;-80
2023/06/23 13:15:24;;;;;;;;;;;29.60;66.00;;;;;;5024489;28;19913;-80
2023/06/23 13:17:49;;;;;;;;;;;29.10;64.00;;;;;;5024763;28;19992;-80
2023/06/23 13:20:15;;;;;;;;;;;28.90;61.40;;;;;;5024834;28;20799;-80
2023/06/23 13:22:40;;;;;;;;;;;29.40;64.10;;;;;;5024738;28;20000;-82
2023/06/23 13:25:06;;;;;;;;;;;29.30;61.40;;;;;;5021087;28;19916;-83
2023/06/23 13:27:32;;;;;;;;;;;29.30;63.10;;;;;;5007161;28;19909;-82
2023/06/23 13:29:57;;;;;;;;;;;29.60;64.50;;;;;;5024716;28;19917;-82
2023/06/23 13:32:23;;;;;;;;;;;29.50;63.60;;;;;;5024723;28;20011;-83
2023/06/23 13:34:49;;;;;;;;;;;29.70;64.70;;;;;;5024334;28;19916;-82
2023/06/23 13:37:14;;;;;;;;;;;29.50;66.40;;;;;;5032598;28;19909;-82
2023/06/23 13:39:40;;;;;;;;;;;28.80;66.40;;;;;;5024567;28;19963;-83
2023/06/23 13:42:06;;;;;;;;;;;28.60;64.50;;;;;;5024528;28;19909;-82
2023/06/23 13:44:31;;;;;;;;;;;28.80;61.20;;;;;;5024139;28;20011;-82
2023/06/23 13:46:57;;;;;;;;;;;28.80;64.60;;;;;;5024541;28;19917;-82
2023/06/23 13:49:22;;;;;;;;;;;28.60;64.30;;;;;;5024810;28;19927;-82
2023/06/23 13:51:48;;;;;;;;;;;28.60;64.70;;;;;;5024999;28;19917;-82
2023/06/23 13:54:14;;;;;;;;;;;28.70;65.10;;;;;;5024355;28;19909;-82
2023/06/23 13:56:39;;;;;;;;;;;28.70;65.10;;;;;;5024846;28;19908;-82
2023/06/23 13:59:05;;;;;;;;;;;28.80;64.70;;;;;;5020243;28;20506;-82
2023/06/23 14:01:30;;;;;;;;;;;28.90;67.20;;;;;;5024072;28;20363;-82
2023/06/23 14:03:56;;;;;;;;;;;28.60;64.60;;;;;;5024694;28;20368;-82
2023/06/23 14:06:22;;;;;;;;;;;28.50;63.60;;;;;;5023484;28;20431;-82
2023/06/23 14:08:48;;;;;;;;;;;28.30;64.10;;;;;;5024761;28;19913;-82
2023/06/23 14:11:14;;;;;;;;;;;28.00;64.90;;;;;;4999570;28;20589;-81
2023/06/23 14:13:41;;;;;;;;;;;28.10;66.30;;;;;;5023741;28;19956;-82
2023/06/23 14:16:07;;;;;;;;;;;27.70;64.60;;;;;;5016120;28;19996;-82